createdAt,value
2017-02-09T00:04:49.550Z,1034.831
2017-02-09T00:07:52.448Z,1034.827
2017-02-09T00:10:56.324Z,1034.819
2017-02-09T00:17:04.553Z,1034.851
2017-02-09T00:20:07.777Z,1034.866
2017-02-09T00:23:11.362Z,1034.869
2017-02-09T00:26:14.774Z,1034.895
2017-02-09T00:29:18.283Z,1034.916
2017-02-09T00:32:21.625Z,1034.944
2017-02-09T00:35:25.070Z,1034.951
2017-02-09T00:38:28.798Z,1034.962
2017-02-09T00:44:37.529Z,1035.003
2017-02-09T00:47:41.078Z,1035.017
2017-02-09T00:56:51.396Z,1035.070
2017-02-09T01:02:59.343Z,1035.096
2017-02-09T01:06:02.979Z,1035.094
2017-02-09T01:09:07.709Z,1035.091
2017-02-09T01:15:16.572Z,1035.107
2017-02-09T01:18:21.371Z,1035.115
2017-02-09T01:21:25.747Z,1035.072
2017-02-09T01:24:28.849Z,1035.104
2017-02-09T01:27:31.792Z,1035.121
2017-02-09T01:30:35.628Z,1035.150
2017-02-09T01:33:39.104Z,1035.145
2017-02-09T01:36:42.084Z,1035.183
2017-02-09T01:39:45.896Z,1035.154
2017-02-09T01:42:49.044Z,1035.155
2017-02-09T01:48:56.273Z,1035.108
2017-02-09T01:51:59.890Z,1035.138
2017-02-09T01:55:03.567Z,1035.143
2017-02-09T01:58:07.155Z,1035.117
2017-02-09T02:01:10.787Z,1035.126
2017-02-09T02:04:13.951Z,1035.081
2017-02-09T02:07:18.692Z,1035.097
2017-02-09T02:10:22.027Z,1035.059
2017-02-09T02:13:25.525Z,1035.040
2017-02-09T02:16:28.863Z,1035.038
2017-02-09T02:19:32.553Z,1035.035
2017-02-09T02:25:40.238Z,1034.984
2017-02-09T02:28:43.538Z,1034.964
2017-02-09T02:31:47.345Z,1034.949
2017-02-09T02:34:51.249Z,1034.932
2017-02-09T02:40:58.986Z,1034.942
2017-02-09T02:44:02.125Z,1034.951
2017-02-09T02:47:05.398Z,1034.977
2017-02-09T02:50:10.123Z,1034.978
2017-02-09T02:53:13.929Z,1034.980
2017-02-09T02:56:17.298Z,1035.011
2017-02-09T03:02:26.977Z,1034.978
2017-02-09T03:05:30.642Z,1034.995
2017-02-09T03:08:33.595Z,1034.979
2017-02-09T03:11:37.162Z,1034.975
2017-02-09T03:17:46.325Z,1034.931
2017-02-09T03:20:49.685Z,1034.962
2017-02-09T03:23:53.228Z,1034.957
2017-02-09T03:26:56.111Z,1034.956
2017-02-09T03:29:59.747Z,1034.958
2017-02-09T03:33:03.164Z,1034.993
2017-02-09T03:36:06.823Z,1034.998
2017-02-09T03:39:09.942Z,1035.017
2017-02-09T03:42:13.744Z,1035.009
2017-02-09T03:45:17.779Z,1035.025
2017-02-09T03:48:21.204Z,1035.030
2017-02-09T03:51:19.446Z,1035.048
2017-02-09T03:54:27.190Z,1035.058
2017-02-09T03:57:30.499Z,1035.077
2017-02-09T04:00:35.382Z,1035.117
2017-02-09T04:03:38.795Z,1035.151
2017-02-09T04:06:41.902Z,1035.218
2017-02-09T04:15:54.005Z,1035.153
2017-02-09T04:22:03.536Z,1035.109
2017-02-09T04:25:07.101Z,1035.103
2017-02-09T04:28:10.510Z,1035.079
2017-02-09T04:31:13.792Z,1035.078
2017-02-09T04:34:17.394Z,1035.095
2017-02-09T04:37:21.013Z,1035.077
2017-02-09T04:40:24.740Z,1035.076
2017-02-09T04:43:28.378Z,1035.104
2017-02-09T04:49:37.886Z,1035.058
2017-02-09T04:52:41.419Z,1035.107
2017-02-09T04:55:45.955Z,1035.138
2017-02-09T04:58:49.632Z,1035.153
2017-02-09T05:01:52.975Z,1035.175
2017-02-09T05:04:56.467Z,1035.203
2017-02-09T05:07:59.817Z,1035.174
2017-02-09T05:11:03.238Z,1035.193
2017-02-09T05:14:06.852Z,1035.188
2017-02-09T05:17:10.169Z,1035.177
2017-02-09T05:20:14.893Z,1035.179
2017-02-09T05:23:18.314Z,1035.203
2017-02-09T05:35:35.310Z,1035.287
2017-02-09T05:38:39.960Z,1035.346
2017-02-09T05:41:43.278Z,1035.385
2017-02-09T05:44:46.796Z,1035.402
2017-02-09T05:47:50.538Z,1035.391
2017-02-09T05:50:54.306Z,1035.368
2017-02-09T05:53:52.721Z,1035.367
2017-02-09T05:57:03.061Z,1035.373
2017-02-09T06:00:06.961Z,1035.393
2017-02-09T06:03:10.752Z,1035.414
2017-02-09T06:06:14.157Z,1035.431
2017-02-09T06:09:17.631Z,1035.412
2017-02-09T06:12:21.254Z,1035.413
2017-02-09T06:15:25.894Z,1035.433
2017-02-09T06:21:33.214Z,1035.466
2017-02-09T06:24:36.799Z,1035.508
2017-02-09T06:27:40.321Z,1035.535
2017-02-09T06:30:43.780Z,1035.539
2017-02-09T06:33:47.434Z,1035.594
2017-02-09T06:36:50.569Z,1035.635
2017-02-09T06:39:54.090Z,1035.623
2017-02-09T06:42:57.878Z,1035.614
2017-02-09T06:46:02.001Z,1035.654
2017-02-09T06:48:59.726Z,1035.668
2017-02-09T06:52:04.195Z,1035.705
2017-02-09T06:55:08.902Z,1035.724
2017-02-09T06:58:19.297Z,1035.728
2017-02-09T07:01:22.828Z,1035.676
2017-02-09T07:04:26.638Z,1035.664
2017-02-09T07:07:30.079Z,1035.685
2017-02-09T07:10:33.510Z,1035.684
2017-02-09T07:13:37.758Z,1035.715
2017-02-09T07:19:43.396Z,1035.691
2017-02-09T07:22:46.987Z,1035.717
2017-02-09T07:25:50.639Z,1035.745
2017-02-09T07:28:54.119Z,1035.744
2017-02-09T07:31:58.875Z,1035.783
2017-02-09T07:35:02.281Z,1035.813
2017-02-09T07:38:06.184Z,1035.825
2017-02-09T07:41:09.676Z,1035.869
2017-02-09T07:44:14.323Z,1035.858
2017-02-09T07:47:19.146Z,1035.912
2017-02-09T07:53:27.932Z,1035.891
2017-02-09T07:56:31.684Z,1035.916
2017-02-09T07:59:35.597Z,1035.941
2017-02-09T08:02:38.848Z,1035.949
2017-02-09T08:08:47.635Z,1035.905
2017-02-09T08:11:51.229Z,1035.908
2017-02-09T08:14:54.762Z,1035.870
2017-02-09T08:17:58.163Z,1035.867
2017-02-09T08:24:04.535Z,1035.848
2017-02-09T08:27:07.750Z,1035.881
2017-02-09T08:36:17.821Z,1035.923
2017-02-09T08:39:21.428Z,1035.933
2017-02-09T08:42:25.398Z,1035.969
2017-02-09T08:45:28.719Z,1036.010
2017-02-09T08:48:32.491Z,1036.018
2017-02-09T08:51:36.091Z,1035.964
2017-02-09T08:54:40.133Z,1035.929
2017-02-09T08:57:43.794Z,1035.898
2017-02-09T09:00:47.551Z,1035.917
2017-02-09T09:03:51.352Z,1035.884
2017-02-09T09:09:58.362Z,1035.849
2017-02-09T09:16:01.149Z,1035.860
2017-02-09T09:19:11.133Z,1035.853
2017-02-09T09:28:23.980Z,1035.855
2017-02-09T09:31:28.168Z,1035.849
2017-02-09T09:37:34.901Z,1035.833
2017-02-09T09:40:38.176Z,1035.847
2017-02-09T09:43:42.545Z,1035.811
2017-02-09T09:49:49.342Z,1035.795
2017-02-09T09:52:52.805Z,1035.784
2017-02-09T10:08:10.290Z,1035.791
2017-02-09T10:20:23.083Z,1035.744
2017-02-09T10:26:22.880Z,1035.731
2017-02-09T10:29:32.941Z,1035.759
2017-02-09T10:35:34.619Z,1035.652
2017-02-09T10:38:43.679Z,1035.586
2017-02-09T10:41:47.508Z,1035.542
2017-02-09T10:44:51.540Z,1035.524
2017-02-09T10:51:00.314Z,1035.517
2017-02-09T11:27:37.519Z,1035.164
2017-02-09T11:33:45.111Z,1035.058
2017-02-09T11:36:49.503Z,1035.033
2017-02-09T11:39:47.226Z,1034.947
2017-02-09T11:45:53.124Z,1034.869
2017-02-09T12:04:15.041Z,1034.850
2017-02-09T12:10:20.900Z,1034.861
2017-02-09T12:28:41.403Z,1034.734
2017-02-09T12:44:05.192Z,1034.609
2017-02-09T12:56:13.066Z,1034.665
2017-02-09T13:02:26.506Z,1034.681
2017-02-09T13:05:29.453Z,1034.644
2017-02-09T13:11:36.039Z,1034.626
2017-02-09T13:26:55.597Z,1034.497
2017-02-09T15:04:30.462Z,1034.454
2017-02-09T15:13:42.720Z,1034.435
2017-02-09T15:16:46.093Z,1034.376
2017-02-09T15:22:54.364Z,1034.306
2017-02-09T15:29:01.964Z,1034.323
2017-02-09T15:35:09.043Z,1034.338
2017-02-09T15:38:12.761Z,1034.333
2017-02-09T16:45:41.659Z,1034.544
2017-02-09T17:10:04.701Z,1034.538
2017-02-09T17:13:09.528Z,1034.567
2017-02-09T17:16:12.935Z,1034.618
2017-02-09T17:22:22.937Z,1034.622
2017-02-09T17:34:37.005Z,1034.677
2017-02-09T17:46:50.406Z,1034.776
2017-02-09T17:49:46.729Z,1034.788
2017-02-09T17:52:56.168Z,1034.749
2017-02-09T17:56:00.600Z,1034.761
2017-02-09T18:02:01.650Z,1034.785
2017-02-09T18:05:09.510Z,1034.760
2017-02-09T18:11:12.294Z,1034.787
2017-02-09T18:14:17.802Z,1034.760
2017-02-09T18:32:45.999Z,1034.701
2017-02-09T18:41:57.116Z,1034.723
2017-02-09T18:45:01.326Z,1034.780
2017-02-09T18:47:57.659Z,1034.792
2017-02-09T18:51:08.533Z,1034.858
2017-02-09T19:18:36.036Z,1034.883
2017-02-09T19:21:38.971Z,1034.881
2017-02-09T19:24:41.888Z,1034.874
2017-02-09T20:28:50.060Z,1034.731
2017-02-09T21:08:28.895Z,1034.667
2017-02-09T22:24:53.422Z,1034.411
2017-02-09T23:41:21.906Z,1034.311
